createdAt,value
2023-02-19T00:01:28.729Z,8.03
2023-02-19T00:04:23.878Z,8.02
2023-02-19T00:06:58.846Z,8.05
2023-02-19T00:09:33.305Z,8.04
2023-02-19T00:12:25.380Z,8.04
2023-02-19T00:15:17.702Z,8.06
2023-02-19T00:18:09.857Z,8.05
2023-02-19T00:21:02.188Z,8.04
2023-02-19T00:23:56.092Z,8.01
2023-02-19T00:26:49.032Z,7.97
2023-02-19T00:29:41.186Z,7.99
2023-02-19T00:32:33.132Z,7.95
2023-02-19T00:35:25.436Z,7.92
2023-02-19T00:38:17.527Z,7.89
2023-02-19T00:41:27.644Z,7.87
2023-02-19T00:44:19.718Z,7.91
2023-02-19T00:47:11.879Z,7.88
2023-02-19T00:50:04.070Z,7.90
2023-02-19T00:52:56.165Z,7.93
2023-02-19T00:55:48.321Z,7.96
2023-02-19T00:58:30.485Z,7.97
2023-02-19T01:01:22.822Z,7.99
2023-02-19T01:04:06.475Z,7.98
2023-02-19T01:06:58.837Z,7.96
2023-02-19T01:09:51.074Z,7.93
2023-02-19T01:12:43.160Z,7.89
2023-02-19T01:15:36.841Z,7.85
2023-02-19T01:18:11.617Z,7.85
2023-02-19T01:21:08.624Z,7.84
2023-02-19T01:24:01.372Z,7.78
2023-02-19T01:26:53.514Z,7.73
2023-02-19T01:29:46.399Z,7.72
2023-02-19T01:32:38.652Z,7.73
2023-02-19T01:35:30.905Z,7.72
2023-02-19T01:38:23.104Z,7.73
2023-02-19T01:41:17.460Z,7.71
2023-02-19T01:44:24.053Z,7.67
2023-02-19T01:47:18.434Z,7.67
2023-02-19T01:50:10.909Z,7.70
2023-02-19T01:53:07.904Z,7.71
2023-02-19T01:56:02.174Z,7.69
2023-02-19T01:58:52.752Z,7.72
2023-02-19T02:01:44.962Z,7.74
2023-02-19T02:04:37.646Z,7.78
2023-02-19T02:07:47.293Z,7.78
2023-02-19T02:10:39.857Z,7.80
2023-02-19T02:13:33.568Z,7.79
2023-02-19T02:16:31.525Z,7.81
2023-02-19T02:19:49.380Z,7.79
2023-02-19T02:22:48.291Z,7.80
2023-02-19T02:26:08.348Z,7.78
2023-02-19T02:29:33.528Z,7.78
2023-02-19T02:32:09.643Z,7.83
2023-02-19T02:35:06.791Z,7.82
2023-02-19T02:38:05.954Z,7.84
2023-02-19T02:40:58.883Z,7.86
2023-02-19T02:43:50.975Z,7.88
2023-02-19T02:46:45.832Z,7.85
2023-02-19T02:49:58.278Z,7.83
2023-02-19T02:53:14.884Z,7.80
2023-02-19T02:56:07.830Z,7.82
2023-02-19T02:59:01.997Z,7.81
2023-02-19T03:02:14.836Z,7.76
2023-02-19T03:05:31.392Z,7.77
2023-02-19T03:08:28.309Z,7.86
2023-02-19T03:11:20.739Z,7.86
2023-02-19T03:14:45.668Z,7.87
2023-02-19T03:17:50.354Z,7.89
2023-02-19T03:20:44.282Z,7.93
2023-02-19T03:23:56.390Z,7.85
2023-02-19T03:26:40.100Z,7.85
2023-02-19T03:29:36.335Z,7.83
2023-02-19T03:32:32.362Z,7.75
2023-02-19T03:35:27.521Z,7.68
2023-02-19T03:38:23.262Z,7.66
2023-02-19T03:41:23.519Z,7.64
2023-02-19T03:44:21.573Z,7.70
2023-02-19T03:47:23.174Z,7.66
2023-02-19T03:50:21.246Z,7.68
2023-02-19T03:53:20.298Z,7.69
2023-02-19T03:56:17.142Z,7.66
2023-02-19T03:59:15.525Z,7.60
2023-02-19T04:02:12.649Z,7.60
2023-02-19T04:05:13.830Z,7.60
2023-02-19T04:08:14.295Z,7.56
2023-02-19T04:11:07.591Z,7.55
2023-02-19T04:14:06.814Z,7.50
2023-02-19T04:17:02.998Z,7.52
2023-02-19T04:19:57.888Z,7.58
2023-02-19T04:22:50.382Z,7.60
2023-02-19T04:25:45.321Z,7.65
2023-02-19T04:28:38.817Z,7.71
2023-02-19T04:31:35.265Z,7.74
2023-02-19T04:34:27.515Z,7.74
2023-02-19T04:37:19.701Z,7.75
2023-02-19T04:40:12.853Z,7.73
2023-02-19T04:43:04.966Z,7.72
2023-02-19T04:46:00.407Z,7.67
2023-02-19T04:48:52.550Z,7.68
2023-02-19T04:51:44.623Z,7.66
2023-02-19T04:54:36.814Z,7.65
2023-02-19T04:57:28.981Z,7.73
2023-02-19T05:00:21.296Z,7.73
2023-02-19T05:03:13.396Z,7.74
2023-02-19T05:06:07.843Z,7.72
2023-02-19T05:09:00.101Z,7.75
2023-02-19T05:11:37.593Z,7.75
2023-02-19T05:14:29.741Z,7.77
2023-02-19T05:17:22.063Z,7.74
2023-02-19T05:20:14.459Z,7.73
2023-02-19T05:23:06.558Z,7.71
2023-02-19T05:25:58.724Z,7.67
2023-02-19T05:28:52.817Z,7.66
2023-02-19T05:31:45.036Z,7.76
2023-02-19T05:34:37.484Z,7.80
2023-02-19T05:37:29.648Z,7.83
2023-02-19T05:40:21.795Z,7.88
2023-02-19T05:43:14.301Z,7.91
2023-02-19T05:46:06.586Z,7.90
2023-02-19T05:48:59.248Z,7.92
2023-02-19T05:51:54.044Z,7.92
2023-02-19T05:54:46.175Z,7.91
2023-02-19T05:57:43.759Z,7.89
2023-02-19T06:00:36.603Z,7.87
2023-02-19T06:03:28.727Z,7.85
2023-02-19T06:06:22.105Z,7.85
2023-02-19T06:09:14.908Z,7.91
2023-02-19T06:12:08.101Z,7.89
2023-02-19T06:14:46.126Z,7.90
2023-02-19T06:17:26.816Z,7.88
2023-02-19T06:20:19.148Z,7.90
2023-02-19T06:22:54.195Z,7.90
2023-02-19T06:25:46.295Z,7.92
2023-02-19T06:28:38.929Z,7.92
2023-02-19T06:31:31.104Z,7.89
2023-02-19T06:34:23.371Z,7.83
2023-02-19T06:37:06.109Z,7.81
2023-02-19T06:39:52.130Z,7.89
2023-02-19T06:42:44.358Z,7.86
2023-02-19T06:45:36.497Z,7.87
2023-02-19T06:48:29.369Z,7.89
2023-02-19T06:51:24.283Z,7.90
2023-02-19T06:54:16.423Z,7.93
2023-02-19T06:57:08.760Z,7.95
2023-02-19T07:00:00.850Z,7.92
2023-02-19T07:02:56.385Z,7.89
2023-02-19T07:05:48.521Z,7.90
2023-02-19T07:08:40.612Z,7.89
2023-02-19T07:11:34.576Z,7.87
2023-02-19T07:14:26.754Z,7.95
2023-02-19T07:17:07.549Z,7.98
2023-02-19T07:20:13.795Z,7.99
2023-02-19T07:23:05.855Z,8.01
2023-02-19T07:25:58.086Z,8.05
2023-02-19T07:28:51.605Z,8.09
2023-02-19T07:31:44.101Z,8.13
2023-02-19T07:34:36.438Z,8.10
2023-02-19T07:37:28.542Z,8.07
2023-02-19T07:40:20.927Z,8.07
2023-02-19T07:42:59.908Z,8.07
2023-02-19T07:45:52.399Z,8.16
2023-02-19T07:48:46.372Z,8.09
2023-02-19T07:51:39.889Z,8.09
2023-02-19T07:54:32.240Z,8.16
2023-02-19T07:57:24.617Z,8.20
2023-02-19T08:00:19.124Z,8.21
2023-02-19T08:03:11.431Z,8.22
2023-02-19T08:06:03.758Z,8.21
2023-02-19T08:08:57.430Z,8.18
2023-02-19T08:12:07.315Z,8.18
2023-02-19T08:14:59.571Z,8.25
2023-02-19T08:17:51.796Z,8.29
2023-02-19T08:20:44.081Z,8.32
2023-02-19T08:23:36.251Z,8.39
2023-02-19T08:26:28.373Z,8.44
2023-02-19T08:29:20.790Z,8.43
2023-02-19T08:32:13.060Z,8.40
2023-02-19T08:34:54.012Z,8.42
2023-02-19T08:37:46.077Z,8.42
2023-02-19T08:40:27.470Z,8.40
2023-02-19T08:43:20.206Z,8.38
2023-02-19T08:46:13.065Z,8.44
2023-02-19T08:49:05.306Z,8.47
2023-02-19T08:51:57.624Z,8.52
2023-02-19T08:54:49.853Z,8.56
2023-02-19T08:57:42.453Z,8.61
2023-02-19T09:00:34.753Z,8.62
2023-02-19T09:03:27.808Z,8.64
2023-02-19T09:06:15.910Z,8.61
2023-02-19T09:09:08.107Z,8.61
2023-02-19T09:12:00.528Z,8.59
2023-02-19T09:14:43.064Z,8.56
2023-02-19T09:17:35.120Z,8.50
2023-02-19T09:20:27.233Z,8.49
2023-02-19T09:23:19.319Z,8.54
2023-02-19T09:26:14.011Z,8.53
2023-02-19T09:29:06.103Z,8.54
2023-02-19T09:32:00.685Z,8.47
2023-02-19T09:34:52.838Z,8.37
2023-02-19T09:37:44.983Z,8.31
2023-02-19T09:40:38.639Z,8.30
2023-02-19T09:43:31.365Z,8.28
2023-02-19T09:46:25.155Z,8.23
2023-02-19T09:49:21.149Z,8.22
2023-02-19T09:52:19.787Z,8.24
2023-02-19T09:55:20.468Z,8.29
2023-02-19T09:58:25.752Z,8.29
2023-02-19T10:01:18.740Z,8.28
2023-02-19T10:04:12.816Z,8.21
2023-02-19T10:07:08.700Z,8.07
2023-02-19T10:09:40.890Z,7.94
2023-02-19T10:12:35.112Z,7.85
2023-02-19T10:15:25.190Z,7.74
2023-02-19T10:18:23.057Z,7.64
2023-02-19T10:21:20.677Z,7.59
2023-02-19T10:24:21.309Z,7.55
2023-02-19T10:26:56.425Z,7.51
2023-02-19T10:29:51.006Z,7.51
2023-02-19T10:33:01.459Z,7.49
2023-02-19T10:36:01.437Z,7.52
2023-02-19T10:38:55.351Z,7.61
2023-02-19T10:41:28.757Z,7.75
2023-02-19T10:44:27.298Z,7.84
2023-02-19T10:47:22.667Z,7.84
2023-02-19T10:50:25.974Z,7.85
2023-02-19T10:53:07.570Z,7.91
2023-02-19T10:56:11.503Z,7.97
2023-02-19T10:59:24.479Z,7.98
2023-02-19T11:02:03.255Z,7.94
2023-02-19T11:05:19.813Z,7.88
2023-02-19T11:08:24.676Z,7.78
2023-02-19T11:11:28.719Z,7.67
2023-02-19T11:14:24.233Z,7.63
2023-02-19T11:17:25.601Z,7.64
2023-02-19T11:20:21.296Z,7.59
2023-02-19T11:23:19.376Z,7.58
2023-02-19T11:26:20.992Z,7.64
2023-02-19T11:29:23.154Z,7.65
2023-02-19T11:32:30.937Z,7.73
2023-02-19T11:35:25.268Z,7.73
2023-02-19T11:38:19.330Z,7.69
2023-02-19T11:41:20.115Z,7.65
2023-02-19T11:44:25.825Z,7.66
2023-02-19T11:47:40.614Z,7.72
2023-02-19T11:50:46.974Z,7.76
2023-02-19T11:53:49.643Z,7.73
2023-02-19T11:56:45.254Z,7.65
2023-02-19T11:59:48.488Z,7.62
2023-02-19T12:03:00.473Z,7.65
2023-02-19T12:06:00.745Z,7.54
2023-02-19T12:09:14.656Z,7.53
2023-02-19T12:12:26.567Z,7.47
2023-02-19T12:15:42.036Z,7.45
2023-02-19T12:18:54.484Z,7.49
2023-02-19T12:22:02.625Z,7.42
2023-02-19T12:25:24.429Z,7.32
2023-02-19T12:28:36.429Z,7.27
2023-02-19T12:31:46.962Z,7.25
2023-02-19T12:34:53.075Z,7.25
2023-02-19T12:37:54.112Z,7.22
2023-02-19T12:40:58.779Z,7.23
2023-02-19T12:43:57.116Z,7.28
2023-02-19T12:46:54.924Z,7.43
2023-02-19T12:49:55.944Z,7.57
2023-02-19T12:52:53.596Z,7.68
2023-02-19T12:55:49.792Z,7.75
2023-02-19T12:58:45.120Z,7.72
2023-02-19T13:01:45.084Z,7.69
2023-02-19T13:04:46.341Z,7.64
2023-02-19T13:07:45.595Z,7.55
2023-02-19T13:10:42.073Z,7.43
2023-02-19T13:13:28.745Z,7.30
2023-02-19T13:16:23.432Z,7.18
2023-02-19T13:19:06.853Z,7.13
2023-02-19T13:22:24.461Z,7.05
2023-02-19T13:25:19.551Z,6.97
2023-02-19T13:28:25.939Z,6.93
2023-02-19T13:31:48.387Z,6.98
2023-02-19T13:34:55.796Z,6.95
2023-02-19T13:37:48.531Z,6.99
2023-02-19T13:40:44.194Z,7.06
2023-02-19T13:43:38.948Z,7.08
2023-02-19T13:46:39.529Z,7.08
2023-02-19T13:49:51.016Z,7.00
2023-02-19T13:52:44.335Z,6.81
2023-02-19T13:55:54.132Z,6.74
2023-02-19T13:59:13.701Z,6.75
2023-02-19T14:02:27.091Z,6.79
2023-02-19T14:06:01.646Z,6.78
2023-02-19T14:08:57.086Z,6.73
2023-02-19T14:12:21.553Z,6.66
2023-02-19T14:15:44.986Z,6.59
2023-02-19T14:18:47.833Z,6.54
2023-02-19T14:21:43.865Z,6.51
2023-02-19T14:24:38.176Z,6.46
2023-02-19T14:27:30.465Z,6.41
2023-02-19T14:30:24.879Z,6.36
2023-02-19T14:33:20.452Z,6.30
2023-02-19T14:36:23.320Z,6.25
2023-02-19T14:39:18.859Z,6.23
2023-02-19T14:42:21.457Z,6.19
2023-02-19T14:45:16.657Z,6.15
2023-02-19T14:47:53.310Z,6.13
2023-02-19T14:50:47.796Z,6.12
2023-02-19T14:53:44.390Z,6.08
2023-02-19T14:56:37.920Z,6.04
2023-02-19T14:59:31.674Z,5.99
2023-02-19T15:02:25.929Z,5.91
2023-02-19T15:05:17.903Z,5.82
2023-02-19T15:08:13.895Z,5.73
2023-02-19T15:11:12.532Z,5.72
2023-02-19T15:14:07.994Z,5.74
2023-02-19T15:17:04.141Z,5.74
2023-02-19T15:19:57.727Z,5.76
2023-02-19T15:22:51.958Z,5.76
2023-02-19T15:25:44.022Z,5.75
2023-02-19T15:28:36.789Z,5.75
2023-02-19T15:31:29.216Z,5.71
2023-02-19T15:34:04.842Z,5.63
2023-02-19T15:36:59.706Z,5.55
2023-02-19T15:39:53.612Z,5.50
2023-02-19T15:42:48.548Z,5.42
2023-02-19T15:45:46.592Z,5.33
2023-02-19T15:48:46.876Z,5.29
2023-02-19T15:51:43.917Z,5.22
2023-02-19T15:54:30.615Z,5.15
2023-02-19T15:57:21.781Z,5.10
2023-02-19T16:00:20.747Z,5.07
2023-02-19T16:03:20.044Z,5.04
2023-02-19T16:06:15.097Z,5.03
2023-02-19T16:09:08.635Z,5.11
2023-02-19T16:12:02.824Z,5.12
2023-02-19T16:14:54.052Z,5.13
2023-02-19T16:17:46.933Z,5.12
2023-02-19T16:20:31.244Z,5.18
2023-02-19T16:23:25.426Z,5.19
2023-02-19T16:26:02.903Z,5.21
2023-02-19T16:28:45.630Z,5.22
2023-02-19T16:31:37.945Z,5.19
2023-02-19T16:34:42.566Z,5.18
2023-02-19T16:37:58.888Z,5.16
2023-02-19T16:41:11.901Z,5.12
2023-02-19T16:44:24.215Z,5.06
2023-02-19T16:47:29.080Z,5.02
2023-02-19T16:50:24.520Z,5.00
2023-02-19T16:53:21.117Z,4.94
2023-02-19T16:56:18.561Z,4.87
2023-02-19T16:58:59.730Z,4.84
2023-02-19T17:01:51.796Z,4.83
2023-02-19T17:04:44.075Z,4.80
2023-02-19T17:07:36.241Z,4.79
2023-02-19T17:10:29.503Z,4.74
2023-02-19T17:13:21.745Z,4.68
2023-02-19T17:16:20.789Z,4.72
2023-02-19T17:19:15.962Z,4.66
2023-02-19T17:22:08.126Z,4.58
2023-02-19T17:25:00.899Z,4.49
2023-02-19T17:27:53.103Z,4.42
2023-02-19T17:30:45.272Z,4.37
2023-02-19T17:33:37.768Z,4.33
2023-02-19T17:36:32.266Z,4.30
2023-02-19T17:39:25.000Z,4.23
2023-02-19T17:42:17.120Z,4.17
2023-02-19T17:45:10.453Z,4.09
2023-02-19T17:48:02.554Z,4.02
2023-02-19T17:50:54.945Z,3.93
2023-02-19T17:53:47.451Z,3.84
2023-02-19T17:56:43.150Z,3.83
2023-02-19T17:59:35.322Z,3.86
2023-02-19T18:02:12.332Z,3.90
2023-02-19T18:05:05.108Z,3.90
2023-02-19T18:07:57.470Z,3.89
2023-02-19T18:10:40.288Z,3.93
2023-02-19T18:13:21.352Z,3.98
2023-02-19T18:16:15.567Z,4.12
2023-02-19T18:19:08.336Z,4.18
2023-02-19T18:22:00.623Z,4.24
2023-02-19T18:24:55.124Z,4.34
2023-02-19T18:27:35.286Z,4.45
2023-02-19T18:30:16.825Z,4.49
2023-02-19T18:32:52.811Z,4.54
2023-02-19T18:35:27.913Z,4.56
2023-02-19T18:38:20.391Z,4.54
2023-02-19T18:41:19.776Z,4.45
2023-02-19T18:44:12.225Z,4.34
2023-02-19T18:47:04.849Z,4.23
2023-02-19T18:49:58.578Z,4.12
2023-02-19T18:52:51.783Z,3.98
2023-02-19T18:55:43.929Z,3.84
2023-02-19T18:58:36.322Z,3.74
2023-02-19T19:01:28.379Z,3.65
2023-02-19T19:04:21.158Z,3.57
2023-02-19T19:07:13.284Z,3.51
2023-02-19T19:10:06.196Z,3.44
2023-02-19T19:12:43.419Z,3.38
2023-02-19T19:15:36.103Z,3.32
2023-02-19T19:21:11.181Z,3.22
2023-02-19T19:24:03.490Z,3.24
2023-02-19T19:26:48.100Z,3.21
2023-02-19T19:29:40.730Z,3.20
2023-02-19T19:32:33.399Z,3.22
2023-02-19T19:35:14.564Z,3.26
2023-02-19T19:38:08.228Z,3.28
2023-02-19T19:41:00.775Z,3.26
2023-02-19T19:43:53.116Z,3.24
2023-02-19T19:46:29.318Z,3.23
2023-02-19T19:49:23.824Z,3.18
2023-02-19T19:52:16.139Z,3.15
2023-02-19T19:55:09.805Z,3.12
2023-02-19T19:58:02.218Z,3.07
2023-02-19T20:00:55.010Z,3.01
2023-02-19T20:03:47.392Z,2.96
2023-02-19T20:06:39.528Z,2.90
2023-02-19T20:09:31.627Z,2.82
2023-02-19T20:12:07.455Z,2.77
2023-02-19T20:14:59.590Z,2.71
2023-02-19T20:17:51.731Z,2.65
2023-02-19T20:20:43.866Z,2.60
2023-02-19T20:23:35.924Z,2.60
2023-02-19T20:26:29.926Z,2.64
2023-02-19T20:29:22.157Z,2.69
2023-02-19T20:32:18.401Z,2.75
2023-02-19T20:35:11.075Z,2.81
2023-02-19T20:37:52.090Z,2.87
2023-02-19T20:40:44.375Z,3.03
2023-02-19T20:43:36.541Z,3.10
2023-02-19T20:46:17.502Z,3.17
2023-02-19T20:49:09.640Z,3.26
2023-02-19T20:51:54.957Z,3.30
2023-02-19T20:54:49.812Z,3.30
2023-02-19T20:57:42.305Z,3.25
2023-02-19T21:00:34.528Z,3.18
2023-02-19T21:03:27.111Z,3.11
2023-02-19T21:06:19.276Z,3.06
2023-02-19T21:09:11.450Z,3.02
2023-02-19T21:11:54.736Z,2.98
2023-02-19T21:14:46.833Z,2.97
2023-02-19T21:17:38.865Z,2.94
2023-02-19T21:20:30.936Z,2.94
2023-02-19T21:23:23.078Z,2.94
2023-02-19T21:26:15.139Z,2.91
2023-02-19T21:29:08.950Z,2.89
2023-02-19T21:32:01.157Z,2.82
2023-02-19T21:34:53.256Z,2.72
2023-02-19T21:37:45.753Z,2.64
2023-02-19T21:40:23.412Z,2.60
2023-02-19T21:43:15.544Z,2.55
2023-02-19T21:46:07.672Z,2.48
2023-02-19T21:48:59.903Z,2.43
2023-02-19T21:51:52.348Z,2.39
2023-02-19T21:54:44.445Z,2.45
2023-02-19T21:57:19.299Z,2.44
2023-02-19T22:00:13.849Z,2.45
2023-02-19T22:03:06.003Z,2.48
2023-02-19T22:05:58.149Z,2.55
2023-02-19T22:08:41.496Z,2.59
2023-02-19T22:11:33.665Z,2.59
2023-02-19T22:14:05.694Z,2.61
2023-02-19T22:16:57.879Z,2.59
2023-02-19T22:19:49.978Z,2.58
2023-02-19T22:22:42.729Z,2.56
2023-02-19T22:25:34.841Z,2.54
2023-02-19T22:28:26.941Z,2.51
2023-02-19T22:31:21.142Z,2.46
2023-02-19T22:34:11.853Z,2.43
2023-02-19T22:37:04.063Z,2.37
2023-02-19T22:39:56.424Z,2.33
2023-02-19T22:42:48.480Z,2.29
2023-02-19T22:45:24.296Z,2.25
2023-02-19T22:48:28.391Z,2.22
2023-02-19T22:51:23.959Z,2.17
2023-02-19T22:54:14.473Z,2.15
2023-02-19T22:57:07.127Z,2.11
2023-02-19T23:00:01.843Z,2.10
2023-02-19T23:02:53.937Z,2.09
2023-02-19T23:05:46.049Z,2.18
2023-02-19T23:08:38.113Z,2.22
2023-02-19T23:11:32.562Z,2.26
2023-02-19T23:14:24.663Z,2.32
2023-02-19T23:17:16.770Z,2.40
2023-02-19T23:20:10.768Z,2.48
2023-02-19T23:23:03.004Z,2.50
2023-02-19T23:25:55.067Z,2.53
2023-02-19T23:28:48.101Z,2.54
2023-02-19T23:31:40.277Z,2.58
2023-02-19T23:34:32.361Z,2.59
2023-02-19T23:37:24.504Z,2.58
2023-02-19T23:40:17.374Z,2.55
2023-02-19T23:42:52.232Z,2.54
2023-02-19T23:45:44.973Z,2.53
2023-02-19T23:48:22.087Z,2.49
2023-02-19T23:51:14.540Z,2.44
2023-02-19T23:54:06.872Z,2.43
2023-02-19T23:56:56.220Z,2.42
2023-02-19T23:59:49.090Z,2.40
